Time;durP1;ratioP1;P1;durP2;ratioP2;P2;SDS_P1;SDS_P2;PMS_P1;PMS_P2;Temp;Humidity;BMP_temperature;BMP_pressure;BME280_temperature;BME280_humidity;BME280_pressure;Samples;Min_cycle;Max_cycle;Signal;HPM_P1;HPM_P2
2021/08/26 00:07:42;;;;;;;8.82;5.50;;;;;;;15.01;70.40;99729.22;4991216;28;20130;-75
2021/08/26 00:10:10;;;;;;;6.57;4.68;;;;;;;14.89;70.65;99719.97;4959219;28;20073;-77
2021/08/26 00:12:37;;;;;;;7.15;5.05;;;;;;;14.78;70.47;99693.19;4958505;28;20133;-78
2021/08/26 00:15:05;;;;;;;6.70;4.68;;;;;;;14.80;70.91;99710.59;4974853;28;20161;-78
2021/08/26 00:17:32;;;;;;;6.13;4.40;;;;;;;14.69;71.03;99705.63;4992360;28;20046;-77
2021/08/26 00:19:59;;;;;;;8.38;4.80;;;;;;;14.68;71.23;99698.69;4992931;28;20038;-77
2021/08/26 00:22:24;;;;;;;6.90;4.53;;;;;;;14.57;70.89;99695.47;4982553;28;20057;-77
2021/08/26 00:24:50;;;;;;;8.18;4.20;;;;;;;14.52;71.65;99689.50;5015263;28;20039;-75
2021/08/26 00:27:16;;;;;;;5.88;4.43;;;;;;;14.49;71.93;99692.19;4996279;28;20052;-75
2021/08/26 00:29:42;;;;;;;7.25;4.30;;;;;;;14.63;71.77;99697.06;4959212;28;20050;-74
2021/08/26 00:32:08;;;;;;;6.03;4.40;;;;;;;14.60;71.93;99693.63;4974582;28;20082;-74
2021/08/26 00:34:33;;;;;;;7.03;4.65;;;;;;;14.69;71.83;99696.94;4975196;28;20489;-74
2021/08/26 00:36:59;;;;;;;9.63;4.30;;;;;;;14.68;72.14;99697.81;4975617;28;20078;-76
2021/08/26 00:39:25;;;;;;;6.72;4.93;;;;;;;14.62;72.20;99688.38;4991374;28;20144;-76
2021/08/26 00:41:51;;;;;;;9.45;4.47;;;;;;;14.72;72.02;99700.31;5007042;28;20045;-75
2021/08/26 00:44:19;;;;;;;7.35;4.97;;;;;;;14.60;71.94;99682.31;4958351;28;20077;-77
2021/08/26 00:46:47;;;;;;;6.10;4.82;;;;;;;14.78;71.90;99701.06;4958183;28;20419;-77
2021/08/26 00:49:14;;;;;;;8.27;5.15;;;;;;;14.63;71.62;99682.22;4990792;28;20498;-78
2021/08/26 00:51:40;;;;;;;7.68;5.20;;;;;;;14.43;71.37;99667.94;4975200;28;20038;-76
2021/08/26 00:54:07;;;;;;;7.30;5.40;;;;;;;14.53;72.09;99685.97;4974646;28;20038;-76
2021/08/26 00:56:32;;;;;;;7.05;5.30;;;;;;;14.56;72.03;99692.03;4992425;28;20101;-76
2021/08/26 00:59:02;;;;;;;9.70;5.97;;;;;;;14.57;72.12;99695.47;4970132;28;20098;-76
2021/08/26 01:01:45;;;;;;;7.47;6.10;;;;;;;14.44;72.01;99685.34;4998491;28;20041;-75
2021/08/26 01:04:15;;;;;;;9.57;6.43;;;;;;;14.52;72.45;99694.75;4979776;28;20049;-76
2021/08/26 01:06:55;;;;;;;7.88;6.00;;;;;;;14.37;72.24;99683.78;4995329;28;20038;-77
2021/08/26 01:09:28;;;;;;;9.73;6.50;;;;;;;14.32;72.22;99685.66;4998314;28;20580;-76
2021/08/26 01:11:56;;;;;;;9.27;6.85;;;;;;;14.35;72.75;99689.94;5015434;28;20540;-76
2021/08/26 01:14:22;;;;;;;11.65;6.30;;;;;;;14.39;72.64;99684.59;5015878;28;20049;-74
2021/08/26 01:16:48;;;;;;;9.05;6.32;;;;;;;14.27;72.59;99664.84;5016058;28;20576;-74
2021/08/26 01:19:14;;;;;;;9.23;6.13;;;;;;;14.29;72.70;99667.41;4997346;28;20029;-74
2021/08/26 01:21:39;;;;;;;7.63;5.80;;;;;;;14.18;73.06;99651.16;5000170;28;20103;-74
2021/08/26 01:24:12;;;;;;;9.10;6.38;;;;;;;14.21;73.03;99665.00;4999898;28;20049;-76
2021/08/26 01:26:53;;;;;;;8.65;5.78;;;;;;;14.26;73.36;99670.09;4984277;28;20575;-77
2021/08/26 01:29:21;;;;;;;8.50;5.15;;;;;;;14.28;73.10;99677.03;5000278;28;20046;-76
2021/08/26 01:31:47;;;;;;;8.48;4.97;;;;;;;14.15;73.02;99665.16;5015532;28;20373;-76
2021/08/26 01:34:19;;;;;;;7.60;5.40;;;;;;;14.15;73.74;99671.25;4997512;28;20049;-75
2021/08/26 01:36:45;;;;;;;6.35;4.63;;;;;;;14.29;73.60;99681.38;4998115;28;20045;-75
2021/08/26 01:39:14;;;;;;;7.38;4.50;;;;;;;14.28;73.57;99673.53;4999986;28;20049;-76
2021/08/26 01:41:53;;;;;;;9.13;5.22;;;;;;;14.20;73.55;99651.97;5016985;28;20038;-74
2021/08/26 01:44:24;;;;;;;7.65;4.55;;;;;;;14.12;73.35;99642.56;5016387;28;20050;-76
2021/08/26 01:47:03;;;;;;;5.32;4.10;;;;;;;14.28;73.72;99669.19;4999423;28;20456;-75
2021/08/26 01:49:29;;;;;;;7.35;4.63;;;;;;;14.25;73.50;99671.88;5016976;28;20101;-76
2021/08/26 01:51:55;;;;;;;5.70;3.95;;;;;;;14.07;74.46;99631.34;5015802;28;20084;-75
2021/08/26 01:54:20;;;;;;;7.00;4.15;;;;;;;14.29;74.02;99659.56;4982779;28;20425;-76
2021/08/26 01:56:47;;;;;;;5.30;4.15;;;;;;;14.24;74.15;99648.34;4998964;28;20066;-75
2021/08/26 01:59:13;;;;;;;7.30;4.35;;;;;;;14.22;74.03;99637.09;5030784;28;20042;-75
2021/08/26 02:01:39;;;;;;;6.43;4.40;;;;;;;14.15;74.17;99626.78;5019899;28;20056;-76
2021/08/26 02:04:04;;;;;;;7.72;4.32;;;;;;;14.20;74.25;99644.13;4999038;28;20045;-76
2021/08/26 02:06:30;;;;;;;6.72;4.32;;;;;;;14.24;74.33;99653.59;5016498;28;20038;-76
2021/08/26 02:08:56;;;;;;;6.70;4.20;;;;;;;14.25;74.57;99637.84;4982465;28;20053;-76
2021/08/26 02:11:21;;;;;;;7.57;4.35;;;;;;;14.34;74.14;99649.84;5017359;28;20052;-77
2021/08/26 02:13:47;;;;;;;6.57;4.15;;;;;;;14.41;74.45;99655.75;5002374;28;20037;-75
2021/08/26 02:16:17;;;;;;;5.35;4.00;;;;;;;14.34;74.15;99643.75;5022188;28;20498;-75
2021/08/26 02:18:43;;;;;;;9.02;4.63;;;;;;;14.35;73.97;99662.03;5027690;28;20045;-75
2021/08/26 02:21:09;;;;;;;6.47;4.10;;;;;;;14.25;74.31;99640.47;5029302;28;20072;-74
2021/08/26 02:23:35;;;;;;;6.82;4.47;;;;;;;14.35;74.23;99664.63;5012584;28;20057;-75
2021/08/26 02:26:01;;;;;;;9.10;4.63;;;;;;;14.24;73.92;99650.97;5010901;28;20037;-76
2021/08/26 02:28:27;;;;;;;7.38;4.40;;;;;;;14.23;74.25;99636.19;4981000;28;20033;-74
2021/08/26 02:30:52;;;;;;;10.13;4.53;;;;;;;14.35;74.18;99656.78;5037289;28;20048;-75
2021/08/26 02:33:18;;;;;;;8.90;4.80;;;;;;;14.36;74.13;99661.13;5031392;28;20045;-78
2021/08/26 02:35:44;;;;;;;6.43;4.45;;;;;;;14.31;74.35;99660.38;5022130;28;20397;-77
2021/08/26 02:38:09;;;;;;;7.32;4.68;;;;;;;14.28;74.40;99661.34;4994357;28;20045;-77
2021/08/26 02:40:35;;;;;;;7.25;4.50;;;;;;;14.37;74.30;99672.44;5026029;28;20045;-78
2021/08/26 02:43:01;;;;;;;7.03;4.53;;;;;;;14.38;74.39;99676.78;5004717;28;20463;-76
2021/08/26 02:45:27;;;;;;;5.68;4.50;;;;;;;14.46;74.39;99686.13;5005130;28;20164;-76
2021/08/26 02:47:52;;;;;;;9.63;4.63;;;;;;;14.42;74.39;99673.19;5003871;28;20049;-75
2021/08/26 02:50:18;;;;;;;6.53;4.10;;;;;;;14.43;73.87;99691.47;5005090;28;20042;-75
2021/08/26 02:52:44;;;;;;;6.57;4.20;;;;;;;14.36;74.02;99679.44;5003918;28;20080;-76
2021/08/26 02:55:10;;;;;;;8.80;4.32;;;;;;;14.32;74.27;99685.66;5017456;28;20045;-74
2021/08/26 02:57:36;;;;;;;6.18;4.10;;;;;;;14.35;74.04;99682.97;5007821;28;20081;-76
2021/08/26 03:00:02;;;;;;;7.95;4.05;;;;;;;14.31;74.32;99676.09;5000151;28;20045;-75
2021/08/26 03:02:32;;;;;;;6.75;4.80;;;;;;;14.29;74.44;99680.50;4998305;28;20046;-75
2021/08/26 03:05:23;;;;;;;7.28;4.63;;;;;;;14.23;74.11;99671.06;5013440;28;20045;-76
2021/08/26 03:07:50;;;;;;;6.30;4.75;;;;;;;14.12;74.31;99657.41;5014208;28;20061;-75
2021/08/26 03:10:16;;;;;;;7.35;4.40;;;;;;;14.35;74.03;99682.97;4995795;28;20050;-79
2021/08/26 03:12:41;;;;;;;11.60;5.28;;;;;;;14.30;74.29;99683.09;5018231;28;20044;-76
2021/08/26 03:15:08;;;;;;;7.00;4.97;;;;;;;14.28;74.14;99674.41;5003806;28;20436;-76
2021/08/26 03:17:33;;;;;;;7.85;5.30;;;;;;;14.32;74.11;99688.28;5015321;28;20073;-76
2021/08/26 03:19:59;;;;;;;7.60;5.18;;;;;;;14.35;74.16;99688.19;5000489;28;20052;-77
2021/08/26 03:22:25;;;;;;;7.68;4.65;;;;;;;14.28;74.16;99669.19;5027281;28;20038;-76
2021/08/26 03:24:51;;;;;;;9.38;5.20;;;;;;;14.26;73.99;99672.72;5032142;28;20018;-77
2021/08/26 03:27:16;;;;;;;6.25;4.75;;;;;;;14.41;74.44;99689.78;5012509;28;20045;-77
2021/08/26 03:29:43;;;;;;;6.43;4.78;;;;;;;14.46;74.39;99686.13;4990031;28;20033;-77
2021/08/26 03:32:08;;;;;;;9.65;4.78;;;;;;;14.52;74.44;99684.25;4972441;28;20521;-77
2021/08/26 03:34:34;;;;;;;7.95;4.75;;;;;;;14.43;74.18;99681.00;5021431;28;20056;-78
2021/08/26 03:37:00;;;;;;;8.00;5.22;;;;;;;14.41;74.17;99693.28;5010615;28;20091;-75
2021/08/26 03:39:26;;;;;;;7.05;4.70;;;;;;;14.36;74.03;99689.91;5027636;28;20054;-77
2021/08/26 03:41:52;;;;;;;7.85;5.07;;;;;;;14.22;74.31;99665.88;5026532;28;20041;-76
2021/08/26 03:44:21;;;;;;;8.25;5.38;;;;;;;14.28;74.08;99676.16;4993974;28;20034;-76
2021/08/26 03:46:51;;;;;;;8.88;5.05;;;;;;;14.22;73.89;99660.66;5004908;28;20184;-79
2021/08/26 03:49:17;;;;;;;8.02;5.75;;;;;;;14.43;74.10;99682.75;5012313;28;20063;-77
2021/08/26 03:51:42;;;;;;;7.68;4.78;;;;;;;14.38;73.89;99685.50;4998695;28;20061;-75
2021/08/26 03:54:08;;;;;;;6.45;5.07;;;;;;;14.39;74.27;99688.97;5000128;28;20055;-76
2021/08/26 03:56:34;;;;;;;8.25;6.05;;;;;;;14.36;74.26;99678.56;5029792;28;20072;-76
2021/08/26 03:59:00;;;;;;;8.43;5.35;;;;;;;14.39;73.85;99674.13;4992537;28;20065;-76
2021/08/26 04:01:25;;;;;;;7.47;5.35;;;;;;;14.50;74.31;99686.94;5008336;28;20038;-79
2021/08/26 04:03:51;;;;;;;11.85;6.20;;;;;;;14.59;74.22;99698.91;4979582;28;20475;-79
2021/08/26 04:06:17;;;;;;;7.30;5.70;;;;;;;14.61;74.04;99684.03;5038866;28;20468;-80
2021/08/26 04:08:43;;;;;;;8.57;5.65;;;;;;;14.70;74.41;99688.19;5028425;28;20029;-80
2021/08/26 04:11:11;;;;;;;10.50;5.93;;;;;;;14.83;74.21;99683.47;5052278;28;20040;-81
2021/08/26 04:13:37;;;;;;;14.75;5.82;;;;;;;14.94;73.59;99691.84;5007594;28;20048;-79
2021/08/26 04:16:03;;;;;;;8.38;6.07;;;;;;;14.88;73.90;99676.34;5025150;28;20093;-77
2021/08/26 04:18:29;;;;;;;10.65;5.80;;;;;;;14.96;73.31;99700.53;5016308;28;20043;-78
2021/08/26 04:20:54;;;;;;;8.80;5.78;;;;;;;15.02;73.41;99703.00;5017345;28;20404;-79
2021/08/26 04:23:20;;;;;;;7.82;5.30;;;;;;;15.05;73.49;99687.19;4977561;28;20074;-78
2021/08/26 04:25:46;;;;;;;8.90;5.90;;;;;;;15.19;73.07;99691.16;4997066;28;20048;-79
2021/08/26 04:28:12;;;;;;;7.45;5.57;;;;;;;15.06;72.80;99669.69;4996381;28;20038;-78
2021/08/26 04:30:37;;;;;;;8.45;5.47;;;;;;;15.27;72.66;99693.53;5004175;28;20065;-79
2021/08/26 04:33:05;;;;;;;9.65;5.43;;;;;;;15.21;72.94;99689.34;5029530;28;20045;-77
2021/08/26 04:35:32;;;;;;;9.25;5.45;;;;;;;15.32;73.11;99702.13;5001960;28;20050;-79
2021/08/26 04:37:58;;;;;;;11.93;6.18;;;;;;;15.09;73.27;99639.94;5010045;28;20045;-78
2021/08/26 04:40:45;;;;;;;8.32;5.25;;;;;;;15.32;72.58;99654.94;4997623;28;20046;-79
2021/08/26 04:43:32;;;;;;;11.32;5.50;;;;;;;15.39;72.93;99643.38;4996031;28;20054;-79
2021/08/26 04:45:58;;;;;;;7.55;5.25;;;;;;;15.74;72.44;99693.84;4986156;28;20053;-78
2021/08/26 04:48:24;;;;;;;10.75;6.15;;;;;;;15.88;71.93;99703.91;5001988;28;20049;-77
2021/08/26 04:50:53;;;;;;;10.85;5.68;;;;;;;15.64;71.87;99667.03;5002424;28;20038;-78
2021/08/26 04:53:18;;;;;;;7.97;5.90;;;;;;;15.90;71.91;99693.38;4990412;28;20054;-78
2021/08/26 04:55:44;;;;;;;11.50;6.50;;;;;;;16.10;71.66;99697.97;5021152;28;20636;-77
2021/08/26 04:58:10;;;;;;;14.73;6.35;;;;;;;16.05;71.01;99671.88;5014819;28;20481;-77
2021/08/26 05:00:36;;;;;;;12.95;7.10;;;;;;;16.11;70.99;99681.31;4998173;28;20074;-80
2021/08/26 05:03:03;;;;;;;8.93;5.93;;;;;;;16.05;70.45;99681.50;4964827;28;20038;-77
2021/08/26 05:05:29;;;;;;;9.68;6.65;;;;;;;16.11;70.36;99699.69;4999495;28;20034;-77
2021/08/26 05:07:54;;;;;;;10.65;6.20;;;;;;;15.90;70.74;99672.38;4982494;28;20168;-79
2021/08/26 05:10:20;;;;;;;10.65;6.35;;;;;;;16.20;70.50;99714.25;4980161;28;20065;-78
2021/08/26 05:12:46;;;;;;;15.07;6.50;;;;;;;16.22;70.58;99717.69;4979235;28;20058;-76
2021/08/26 05:15:12;;;;;;;8.93;6.28;;;;;;;16.26;70.35;99693.91;4996420;28;20030;-77
2021/08/26 05:17:39;;;;;;;11.73;6.03;;;;;;;16.44;70.31;99709.94;4997791;28;20042;-79
2021/08/26 05:20:05;;;;;;;13.02;6.15;;;;;;;16.50;70.12;99719.38;5002864;28;20053;-78
2021/08/26 05:22:33;;;;;;;10.02;6.15;;;;;;;16.55;70.08;99702.56;4979951;28;20034;-77
2021/08/26 05:24:59;;;;;;;13.27;6.68;;;;;;;16.54;69.74;99705.25;4997463;28;20046;-78
2021/08/26 05:27:34;;;;;;;13.15;7.30;;;;;;;16.58;69.67;99700.72;4979288;28;20093;-77
2021/08/26 05:30:03;;;;;;;12.90;5.97;;;;;;;16.71;69.52;99702.88;4995609;28;20104;-78
2021/08/26 05:32:31;;;;;;;9.13;6.63;;;;;;;16.49;69.69;99663.38;4980618;28;20128;-78
2021/08/26 05:35:00;;;;;;;11.77;6.20;;;;;;;16.45;68.64;99674.88;4994699;28;20038;-78
2021/08/26 05:37:33;;;;;;;11.85;6.28;;;;;;;16.54;68.94;99703.47;4995979;28;20108;-77
2021/08/26 05:40:03;;;;;;;10.85;6.22;;;;;;;16.59;68.76;99739.22;4996194;28;20069;-78
2021/08/26 05:42:29;;;;;;;9.90;5.88;;;;;;;15.32;68.20;99548.34;4978347;28;20422;-77
2021/08/26 05:44:55;;;;;;;8.80;5.72;;;;;;;16.11;68.47;99713.66;4979251;28;20050;-76
2021/08/26 05:47:22;;;;;;;8.32;5.53;;;;;;;16.45;69.41;99729.19;4997485;28;20092;-77
2021/08/26 05:49:55;;;;;;;8.73;6.60;;;;;;;16.04;69.14;99649.16;4981257;28;20042;-77
2021/08/26 05:52:20;;;;;;;9.98;5.85;;;;;;;16.22;69.26;99691.44;4984031;28;20498;-79
2021/08/26 05:54:47;;;;;;;8.43;5.50;;;;;;;16.58;69.09;99743.59;4963316;28;20046;-79
2021/08/26 05:57:18;;;;;;;8.63;5.50;;;;;;;16.66;68.99;99730.22;4975999;28;20491;-81
2021/08/26 05:59:44;;;;;;;;;;;;;;;16.80;68.67;99738.47;4994798;28;20057;-77
2021/08/26 06:02:14;;;;;;;7.85;5.22;;;;;;;16.75;68.05;99727.25;4970266;28;19965;-78
2021/08/26 06:04:39;;;;;;;10.80;5.40;;;;;;;16.66;68.64;99730.22;4978490;28;20034;-79
2021/08/26 06:07:10;;;;;;;9.63;5.70;;;;;;;16.64;68.53;99732.03;4995454;28;20056;-77
2021/08/26 06:09:36;;;;;;;8.17;5.57;;;;;;;16.74;68.81;99740.47;4968318;28;20054;-79
2021/08/26 06:12:22;;;;;;;10.43;5.35;;;;;;;16.84;68.62;99745.34;4984924;28;20049;-77
2021/08/26 06:14:57;;;;;;;9.70;5.63;;;;;;;17.04;68.75;99742.91;4990044;28;20129;-79
2021/08/26 06:17:23;;;;;;;7.30;4.93;;;;;;;17.08;68.74;99715.59;4987970;28;20514;-78
2021/08/26 06:19:51;;;;;;;8.80;5.38;;;;;;;17.88;68.14;99749.34;5001521;28;20038;-79
2021/08/26 06:22:20;;;;;;;6.35;4.45;;;;;;;17.92;66.85;99755.34;4952291;28;20042;-77
2021/08/26 06:24:46;;;;;;;10.52;4.72;;;;;;;17.48;66.64;99702.72;4984571;28;20114;-79
2021/08/26 06:27:15;;;;;;;8.02;4.63;;;;;;;17.73;66.62;99744.69;5002445;28;20509;-75
2021/08/26 06:29:41;;;;;;;12.02;4.88;;;;;;;17.70;66.94;99715.88;5003025;28;20342;-78
2021/08/26 06:32:07;;;;;;;7.82;4.72;;;;;;;17.76;66.63;99711.22;4958359;28;20533;-77
2021/08/26 06:34:46;;;;;;;6.55;4.93;;;;;;;18.26;66.61;99732.94;4975256;28;20038;-81
2021/08/26 06:37:15;;;;;;;8.38;5.22;;;;;;;19.18;66.25;99740.41;4959265;28;20392;-77
2021/08/26 06:39:44;;;;;;;10.95;5.47;;;;;;;20.05;65.29;99727.59;4977286;28;20047;-79
2021/08/26 06:42:16;;;;;;;8.45;5.15;;;;;;;20.58;64.49;99725.81;4979225;28;20054;-77
2021/08/26 06:45:03;;;;;;;6.50;5.15;;;;;;;20.79;60.79;99744.16;4987583;28;20070;-78
2021/08/26 06:47:29;;;;;;;8.52;4.95;;;;;;;20.32;60.76;99701.56;4991777;28;20034;-77
2021/08/26 06:49:55;;;;;;;8.13;5.03;;;;;;;19.98;60.44;99753.44;4980237;28;20049;-78
2021/08/26 06:52:20;;;;;;;9.48;5.07;;;;;;;19.84;61.59;99757.56;4995954;28;20502;-78
2021/08/26 06:54:46;;;;;;;7.57;4.95;;;;;;;19.47;60.78;99742.63;4996166;28;20514;-78
2021/08/26 06:57:12;;;;;;;7.63;4.85;;;;;;;19.36;61.27;99758.94;4977071;28;20046;-77
2021/08/26 06:59:41;;;;;;;10.63;5.20;;;;;;;19.20;61.59;99749.09;4969574;28;20502;-78
2021/08/26 07:02:07;;;;;;;9.52;5.03;;;;;;;19.34;61.24;99751.13;4995165;28;20042;-80
2021/08/26 07:04:36;;;;;;;6.60;4.90;;;;;;;19.29;62.18;99768.94;5012533;28;20407;-79
2021/08/26 07:07:08;;;;;;;7.90;4.93;;;;;;;19.98;63.46;99754.28;4992021;28;20531;-79
2021/08/26 07:09:37;;;;;;;9.43;5.60;;;;;;;20.67;62.94;99745.63;4997207;28;20100;-80
2021/08/26 07:12:03;;;;;;;9.90;5.13;;;;;;;20.88;60.99;99701.34;5013847;28;20088;-79
2021/08/26 07:14:31;;;;;;;9.57;4.88;;;;;;;20.91;62.15;99614.81;4982059;28;20038;-78
2021/08/26 07:17:09;;;;;;;10.25;5.35;;;;;;;23.27;61.74;99639.88;4986928;28;20100;-78
2021/08/26 07:19:42;;;;;;;9.13;4.60;;;;;;;24.66;55.93;99726.31;4996550;28;20065;-80
2021/08/26 07:22:32;;;;;;;7.03;5.20;;;;;;;23.27;52.55;99621.28;4997575;28;20042;-78
2021/08/26 07:24:59;;;;;;;6.43;4.38;;;;;;;23.54;52.74;99754.03;4977933;28;20050;-78
2021/08/26 07:27:27;;;;;;;6.75;4.50;;;;;;;22.94;53.67;99688.78;5000636;28;20038;-78
2021/08/26 07:29:53;;;;;;;6.78;4.68;;;;;;;22.87;54.00;99706.88;4997812;28;20100;-79
2021/08/26 07:32:18;;;;;;;6.07;4.60;;;;;;;24.40;54.34;99680.25;4982884;28;20050;-79
2021/08/26 07:34:44;;;;;;;6.97;4.68;;;;;;;25.01;51.40;99705.38;4977823;28;20062;-78
2021/08/26 07:37:21;;;;;;;6.25;4.60;;;;;;;25.76;49.05;99666.28;4985837;28;20042;-79
2021/08/26 07:39:56;;;;;;;7.82;4.50;;;;;;;25.82;49.11;99629.34;4987058;28;20046;-78
2021/08/26 07:42:22;;;;;;;8.88;4.20;;;;;;;28.22;48.68;99743.13;4980913;28;20047;-79
2021/08/26 07:44:53;;;;;;;5.85;4.25;;;;;;;29.68;43.97;99711.78;4979572;28;20074;-80
2021/08/26 07:47:33;;;;;;;5.93;4.25;;;;;;;31.04;40.71;99660.72;4986958;28;20046;-82
2021/08/26 07:50:09;;;;;;;9.43;4.78;;;;;;;30.92;38.13;99753.22;4980632;28;20038;-80
2021/08/26 07:53:04;;;;;;;7.20;4.80;;;;;;;30.23;39.72;99737.25;4988803;28;20069;-80
2021/08/26 07:55:33;;;;;;;9.95;5.13;;;;;;;30.47;38.05;99755.56;4975790;28;20061;-80
2021/08/26 07:58:04;;;;;;;6.88;4.47;;;;;;;29.71;37.82;99745.53;4974862;28;20078;-79
2021/08/26 08:00:31;;;;;;;9.20;5.00;;;;;;;28.17;39.23;99717.75;4994209;28;20045;-78
2021/08/26 08:03:41;;;;;;;6.43;4.68;;;;;;;27.04;40.20;99763.22;4990746;28;20137;-82
2021/08/26 08:06:48;;;;;;;7.17;5.07;;;;;;;26.06;41.75;99772.41;5002225;28;20109;-81
2021/08/26 08:09:13;;;;;;;7.32;4.63;;;;;;;25.18;44.60;99755.59;5005707;28;20066;-80
2021/08/26 08:11:48;;;;;;;9.77;4.97;;;;;;;25.03;44.82;99775.31;4978323;28;20045;-80
2021/08/26 08:14:17;;;;;;;7.65;5.30;;;;;;;24.56;46.33;99793.53;4995232;28;20098;-79
2021/08/26 08:16:49;;;;;;;8.05;5.00;;;;;;;22.98;47.16;99627.47;4978019;28;20453;-80
2021/08/26 08:19:18;;;;;;;7.40;5.15;;;;;;;23.69;48.60;99786.75;4946515;28;20042;-80
2021/08/26 08:21:47;;;;;;;10.02;5.20;;;;;;;22.86;48.43;99679.47;4961903;28;20050;-79
2021/08/26 08:24:13;;;;;;;7.07;5.53;;;;;;;23.32;49.61;99797.00;4994022;28;20038;-78
2021/08/26 08:26:39;;;;;;;7.43;4.90;;;;;;;23.32;50.33;99688.19;4961876;28;20061;-79
2021/08/26 08:29:05;;;;;;;11.23;5.05;;;;;;;24.58;49.38;99789.84;4993242;28;20054;-80
2021/08/26 08:31:31;;;;;;;11.55;5.75;;;;;;;24.71;48.89;99765.06;4978653;28;20132;-80
2021/08/26 08:34:00;;;;;;;7.30;4.90;;;;;;;24.62;49.07;99743.44;4963234;28;20065;-80
2021/08/26 08:36:26;;;;;;;8.77;5.20;;;;;;;24.55;48.08;99783.84;4979513;28;20058;-79
2021/08/26 08:39:03;;;;;;;7.68;5.25;;;;;;;23.64;49.30;99717.13;4997339;28;20038;-79
2021/08/26 08:41:35;;;;;;;6.72;5.30;;;;;;;22.80;49.86;99648.06;4999104;28;20042;-78
2021/08/26 08:44:10;;;;;;;10.15;5.55;;;;;;;23.34;51.36;99783.66;5003992;28;20094;-81
2021/08/26 08:46:50;;;;;;;7.93;5.72;;;;;;;22.50;51.49;99691.41;4966765;28;20522;-78
2021/08/26 08:49:20;;;;;;;7.03;5.55;;;;;;;22.42;53.06;99742.25;4982077;28;20042;-81
2021/08/26 08:51:50;;;;;;;10.23;5.90;;;;;;;22.40;52.68;99730.84;4991499;28;20034;-77
2021/08/26 08:54:26;;;;;;;9.98;5.82;;;;;;;22.82;53.94;99805.31;4993641;28;20042;-78
2021/08/26 08:56:52;;;;;;;11.75;5.78;;;;;;;22.66;53.43;99785.94;4994208;28;20058;-79
2021/08/26 08:59:22;;;;;;;8.45;6.30;;;;;;;21.41;54.48;99632.38;4986185;28;20092;-78
2021/08/26 09:02:03;;;;;;;6.95;6.00;;;;;;;21.06;55.17;99636.91;4993999;28;20136;-80
2021/08/26 09:04:29;;;;;;;7.90;5.97;;;;;;;21.57;56.00;99746.16;5015219;28;20405;-80
2021/08/26 09:07:49;;;;;;;8.07;6.28;;;;;;;21.22;55.93;99718.91;4987822;28;20065;-80
2021/08/26 09:10:19;;;;;;;11.20;6.40;;;;;;;20.79;56.91;99680.72;4998509;28;20072;-78
2021/08/26 09:12:51;;;;;;;8.68;6.20;;;;;;;20.83;57.85;99708.69;4997475;28;20050;-80
2021/08/26 09:15:29;;;;;;;7.20;5.97;;;;;;;20.38;58.05;99640.50;4963383;28;20049;-79
2021/08/26 09:18:25;;;;;;;10.98;6.35;;;;;;;21.26;58.34;99811.34;4980804;28;20541;-79
2021/08/26 09:20:57;;;;;;;11.73;7.30;;;;;;;20.92;59.55;99750.50;4980589;28;20038;-78
2021/08/26 09:23:31;;;;;;;10.73;6.97;;;;;;;21.10;59.00;99756.63;4978328;28;20294;-78
2021/08/26 09:26:15;;;;;;;9.07;6.43;;;;;;;20.75;59.98;99715.22;4979315;28;20038;-80
2021/08/26 09:28:53;;;;;;;9.40;6.88;;;;;;;20.86;60.00;99733.19;4997417;28;20041;-80
2021/08/26 09:31:26;;;;;;;8.40;7.05;;;;;;;19.99;60.07;99637.19;4966180;28;20046;-78
2021/08/26 09:34:02;;;;;;;12.35;7.50;;;;;;;20.27;61.60;99724.72;4931425;28;20107;-79
2021/08/26 09:36:40;;;;;;;9.43;7.30;;;;;;;20.86;62.30;99801.06;4979840;28;20077;-81
2021/08/26 09:39:23;;;;;;;10.07;7.40;;;;;;;20.43;62.29;99651.66;4981428;28;20057;-80
2021/08/26 09:42:02;;;;;;;9.85;7.20;;;;;;;20.82;61.56;99675.25;4964375;28;20046;-80
2021/08/26 09:44:53;;;;;;;11.60;7.50;;;;;;;21.05;60.66;99741.00;4942345;28;20046;-78
2021/08/26 09:47:26;;;;;;;11.85;7.97;;;;;;;20.82;61.21;99722.84;4963515;28;20047;-79
2021/08/26 09:50:13;;;;;;;10.63;8.02;;;;;;;20.79;62.07;99707.16;4979817;28;20038;-78
2021/08/26 09:52:55;;;;;;;14.23;8.32;;;;;;;20.91;61.16;99757.59;4982167;28;20152;-81
2021/08/26 09:55:58;;;;;;;13.32;7.53;;;;;;;21.23;61.79;99836.19;4979851;28;20065;-80
2021/08/26 09:58:37;;;;;;;12.45;7.80;;;;;;;21.01;62.30;99829.38;5004548;28;20045;-80
2021/08/26 10:01:37;;;;;;;13.10;8.40;;;;;;;20.49;62.71;99750.06;5000258;28;20399;-79
2021/08/26 10:04:49;;;;;;;11.07;8.88;;;;;;;20.32;62.11;99712.97;4986788;28;20048;-79
2021/08/26 10:07:24;;;;;;;12.18;8.25;;;;;;;20.76;63.28;99761.03;4970462;28;20478;-79
2021/08/26 10:09:54;;;;;;;12.65;8.45;;;;;;;20.36;62.80;99710.19;5018233;28;20076;-80
2021/08/26 10:12:34;;;;;;;11.70;9.10;;;;;;;20.99;63.43;99831.25;4984822;28;20041;-80
2021/08/26 10:15:14;;;;;;;12.25;9.38;;;;;;;20.66;63.82;99731.53;5016076;28;20097;-78
2021/08/26 10:17:48;;;;;;;13.27;9.80;;;;;;;21.53;63.83;99816.94;4983018;28;20046;-80
2021/08/26 10:20:15;;;;;;;13.10;10.52;;;;;;;21.88;63.15;99808.88;5016120;28;20437;-79
2021/08/26 10:22:44;;;;;;;11.50;8.45;;;;;;;21.22;62.94;99604.31;4999163;28;20136;-81
2021/08/26 10:25:39;;;;;;;11.65;9.30;;;;;;;23.61;62.82;99807.59;4999717;28;20124;-77
2021/08/26 10:28:18;;;;;;;12.57;9.60;;;;;;;23.71;58.98;99723.75;5000258;28;20044;-80
2021/08/26 10:30:47;;;;;;;12.30;10.10;;;;;;;23.44;57.77;99742.28;4983977;28;20072;-80
2021/08/26 10:33:28;;;;;;;10.90;9.40;;;;;;;22.77;58.25;99714.56;5018021;28;20272;-76
2021/08/26 10:36:04;;;;;;;10.88;9.77;;;;;;;23.09;58.44;99823.13;5005937;28;20045;-79
2021/08/26 10:38:55;;;;;;;13.02;10.93;;;;;;;22.29;58.35;99722.66;4988405;28;20061;-80
2021/08/26 10:41:34;;;;;;;11.27;9.98;;;;;;;22.44;58.79;99715.63;5004036;28;20057;-80
2021/08/26 10:44:11;;;;;;;16.13;11.57;;;;;;;23.08;58.10;99817.94;4993157;28;20041;-78
2021/08/26 10:46:56;;;;;;;12.68;9.68;;;;;;;22.87;59.01;99770.53;5021663;28;20061;-79
2021/08/26 10:50:26;;;;;;;10.13;9.10;;;;;;;22.16;58.44;99676.63;5006735;28;20797;-79
2021/08/26 10:53:26;;;;;;;10.20;9.20;;;;;;;22.45;59.15;99773.00;4979149;28;20053;-79
2021/08/26 10:56:29;;;;;;;13.43;10.25;;;;;;;22.61;58.71;99819.84;4986654;28;20137;-81
2021/08/26 10:59:46;;;;;;;13.45;10.80;;;;;;;21.13;59.81;99647.13;5008590;28;20050;-81
2021/08/26 11:02:40;;;;;;;15.52;10.88;;;;;;;21.98;60.00;99825.13;5007014;28;20472;-81
2021/08/26 11:05:39;;;;;;;11.75;10.23;;;;;;;20.63;61.22;99668.28;5009948;28;20046;-79
2021/08/26 11:08:39;;;;;;;14.63;10.60;;;;;;;20.95;61.85;99750.34;5041173;28;20148;-78
2021/08/26 11:11:42;;;;;;;17.08;12.38;;;;;;;21.40;62.19;99823.84;5005154;28;20052;-78
2021/08/26 11:14:46;;;;;;;14.35;11.60;;;;;;;21.29;61.97;99822.63;5007638;28;20084;-78
2021/08/26 11:17:27;;;;;;;16.25;12.23;;;;;;;21.09;62.79;99820.16;4999441;28;20057;-78
2021/08/26 11:19:55;;;;;;;15.23;11.70;;;;;;;20.24;63.69;99701.09;4998579;28;20037;-77
2021/08/26 11:22:49;;;;;;;17.08;13.35;;;;;;;20.61;64.17;99742.34;5015812;28;20149;-80
2021/08/26 11:25:37;;;;;;;19.10;13.73;;;;;;;20.90;63.96;99819.34;5012298;28;20033;-78
2021/08/26 11:28:33;;;;;;;16.35;13.73;;;;;;;20.62;64.51;99801.38;4983954;28;20041;-77
2021/08/26 11:31:16;;;;;;;17.27;13.75;;;;;;;20.47;64.94;99772.13;4995917;28;20549;-76
2021/08/26 11:33:43;;;;;;;18.42;14.65;;;;;;;20.51;65.50;99799.28;4995856;28;20493;-79
2021/08/26 11:37:00;;;;;;;21.27;14.57;;;;;;;20.08;65.89;99727.44;4979173;28;20042;-78
2021/08/26 11:39:50;;;;;;;21.05;15.27;;;;;;;20.62;66.30;99833.09;4965376;28;20054;-79
2021/08/26 11:42:19;;;;;;;19.67;15.27;;;;;;;20.56;66.69;99828.09;4979290;28;20073;-77
2021/08/26 11:45:03;;;;;;;20.77;15.95;;;;;;;19.89;66.64;99751.25;4978779;28;20085;-79
2021/08/26 11:47:31;;;;;;;23.02;17.63;;;;;;;20.04;67.27;99836.81;4994928;28;20073;-77
2021/08/26 11:50:12;;;;;;;22.50;19.10;;;;;;;19.63;68.28;99822.81;5011035;28;20046;-79
2021/08/26 11:52:39;;;;;;;31.67;22.15;;;;;;;19.50;69.19;99838.34;4962650;28;20050;-77
2021/08/26 11:55:19;;;;;;;26.17;19.27;;;;;;;19.40;70.30;99842.31;4963841;28;20042;-79
2021/08/26 11:57:45;;;;;;;99.18;27.48;;;;;;;19.13;70.44;99833.84;4995354;28;20121;-78
2021/08/26 12:00:16;;;;;;;127.03;34.15;;;;;;;18.29;71.17;99756.50;4994062;28;20092;-78